createdAt,value
2018-04-10T00:00:59.198Z,61.47
2018-04-10T00:01:59.175Z,61.47
2018-04-10T00:02:59.155Z,60.33
2018-04-10T00:03:59.134Z,61.29
2018-04-10T00:04:59.112Z,61.76
2018-04-10T00:05:59.092Z,60.33
2018-04-10T00:06:59.079Z,60.71
2018-04-10T00:07:59.049Z,60.42
2018-04-10T00:08:59.029Z,61.76
2018-04-10T00:09:59.010Z,61.86
2018-04-10T00:10:58.986Z,61.10
2018-04-10T00:11:58.965Z,61.76
2018-04-10T00:12:58.944Z,61.95
2018-04-10T00:13:58.923Z,61.38
2018-04-10T00:14:58.901Z,62.05
2018-04-10T00:15:58.881Z,61.86
2018-04-10T00:16:58.861Z,61.83
2018-04-10T00:17:58.840Z,61.35
2018-04-10T00:18:58.819Z,61.83
2018-04-10T00:19:58.797Z,63.48
2018-04-10T00:20:58.777Z,63.39
2018-04-10T00:21:58.757Z,63.48
2018-04-10T00:22:58.734Z,63.45
2018-04-10T00:23:58.713Z,63.54
2018-04-10T00:24:58.695Z,63.45
2018-04-10T00:25:58.669Z,62.59
2018-04-10T00:26:58.649Z,62.43
2018-04-10T00:27:58.630Z,60.87
2018-04-10T00:28:58.609Z,60.58
2018-04-10T00:29:58.590Z,60.11
2018-04-10T00:30:58.567Z,60.21
2018-04-10T00:31:58.545Z,59.16
2018-04-10T00:32:58.525Z,59.06
2018-04-10T00:33:58.502Z,58.87
2018-04-10T00:34:58.481Z,58.77
2018-04-10T00:35:58.459Z,58.87
2018-04-10T00:36:58.441Z,58.77
2018-04-10T00:37:59.918Z,58.58
2018-04-10T00:38:58.396Z,58.77
2018-04-10T00:39:58.376Z,57.22
2018-04-10T00:40:58.354Z,56.17
2018-04-10T00:41:58.332Z,55.69
2018-04-10T00:42:58.313Z,55.50
2018-04-10T00:43:59.042Z,55.31
2018-04-10T00:44:58.269Z,55.41
2018-04-10T00:45:58.248Z,55.02
2018-04-10T00:46:58.228Z,55.41
2018-04-10T00:47:58.208Z,54.93
2018-04-10T00:48:59.788Z,55.31
2018-04-10T00:49:58.163Z,54.93
2018-04-10T00:50:58.143Z,55.21
2018-04-10T00:51:58.121Z,55.79
2018-04-10T00:52:58.101Z,55.41
2018-04-10T00:53:58.080Z,55.31
2018-04-10T00:54:58.059Z,55.31
2018-04-10T00:55:58.037Z,55.69
2018-04-10T00:56:58.017Z,55.88
2018-04-10T00:57:57.994Z,55.12
2018-04-10T00:58:57.973Z,56.07
2018-04-10T00:59:57.952Z,55.02
2018-04-10T01:00:57.931Z,54.93
2018-04-10T01:01:57.909Z,54.36
2018-04-10T01:02:57.889Z,55.41
2018-04-10T01:03:57.869Z,55.50
2018-04-10T01:04:57.846Z,54.36
2018-04-10T01:05:57.824Z,53.31
2018-04-10T01:06:57.803Z,53.78
2018-04-10T01:07:57.784Z,53.59
2018-04-10T01:08:57.762Z,54.64
2018-04-10T01:09:57.739Z,53.31
2018-04-10T01:10:57.720Z,53.50
2018-04-10T01:11:57.697Z,54.24
2018-04-10T01:12:57.676Z,53.47
2018-04-10T01:13:57.654Z,53.09
2018-04-10T01:14:57.639Z,52.04
2018-04-10T01:15:57.613Z,52.04
2018-04-10T01:16:57.592Z,51.47
2018-04-10T01:17:57.569Z,51.76
2018-04-10T01:18:57.548Z,50.99
2018-04-10T01:19:57.528Z,50.52
2018-04-10T01:20:57.507Z,50.99
2018-04-10T01:21:57.483Z,50.23
2018-04-10T01:22:57.462Z,50.42
2018-04-10T01:23:57.442Z,49.76
2018-04-10T01:24:57.420Z,48.99
2018-04-10T01:25:57.398Z,48.90
2018-04-10T01:26:57.378Z,49.18
2018-04-10T01:27:57.355Z,47.85
2018-04-10T01:28:57.334Z,48.71
2018-04-10T01:29:57.312Z,47.75
2018-04-10T01:30:57.292Z,47.66
2018-04-10T01:31:57.269Z,48.32
2018-04-10T01:32:57.248Z,48.04
2018-04-10T01:33:57.229Z,48.90
2018-04-10T01:34:57.205Z,47.85
2018-04-10T01:35:57.185Z,48.13
2018-04-10T01:36:57.163Z,47.75
2018-04-10T01:37:57.141Z,47.85
2018-04-10T01:38:57.120Z,48.23
2018-04-10T01:39:57.100Z,48.90
2018-04-10T01:40:57.080Z,48.99
2018-04-10T01:41:57.055Z,49.56
2018-04-10T01:42:57.034Z,50.13
2018-04-10T01:43:57.013Z,49.08
2018-04-10T01:44:56.991Z,47.37
2018-04-10T01:45:56.969Z,47.75
2018-04-10T01:46:56.947Z,49.18
2018-04-10T01:47:59.178Z,49.37
2018-04-10T01:48:56.906Z,48.99
2018-04-10T01:49:56.883Z,51.09
2018-04-10T01:50:56.862Z,51.09
2018-04-10T01:51:56.841Z,50.52
2018-04-10T01:52:56.818Z,49.08
2018-04-10T01:53:56.796Z,48.49
2018-04-10T01:54:56.776Z,48.99
2018-04-10T01:55:56.753Z,48.30
2018-04-10T01:56:56.733Z,50.21
2018-04-10T01:57:56.711Z,50.87
2018-04-10T01:58:56.689Z,48.58
2018-04-10T01:59:56.667Z,47.25
2018-04-10T02:00:56.647Z,46.39
2018-04-10T02:01:56.623Z,46.78
2018-04-10T02:02:56.604Z,47.25
2018-04-10T02:03:56.581Z,47.52
2018-04-10T02:04:56.559Z,46.47
2018-04-10T02:05:56.536Z,44.09
2018-04-10T02:06:56.516Z,45.15
2018-04-10T02:07:56.494Z,47.42
2018-04-10T02:08:56.472Z,45.04
2018-04-10T02:09:56.449Z,45.04
2018-04-10T02:10:56.427Z,48.85
2018-04-10T02:11:56.406Z,46.37
2018-04-10T02:12:56.385Z,43.51
2018-04-10T02:13:56.363Z,45.30
2018-04-10T02:14:56.340Z,43.68
2018-04-10T02:15:56.319Z,43.49
2018-04-10T02:16:56.296Z,42.83
2018-04-10T02:17:56.275Z,40.16
2018-04-10T02:18:56.255Z,36.83
2018-04-10T02:19:56.233Z,40.73
2018-04-10T02:20:56.209Z,40.26
2018-04-10T02:21:56.186Z,37.30
2018-04-10T02:22:56.165Z,41.49
2018-04-10T02:23:56.142Z,41.61
2018-04-10T02:24:56.121Z,41.21
2018-04-10T02:25:56.098Z,42.07
2018-04-10T02:26:56.075Z,41.40
2018-04-10T02:27:56.053Z,40.56
2018-04-10T02:28:56.032Z,40.73
2018-04-10T02:29:56.009Z,40.06
2018-04-10T02:30:55.985Z,40.09
2018-04-10T02:31:56.714Z,38.75
2018-04-10T02:32:55.942Z,39.80
2018-04-10T02:33:55.918Z,42.35
2018-04-10T02:34:55.896Z,43.23
2018-04-10T02:35:55.875Z,43.02
2018-04-10T02:36:55.851Z,39.78
2018-04-10T02:37:55.829Z,40.64
2018-04-10T02:38:55.809Z,39.78
2018-04-10T02:39:55.784Z,38.17
2018-04-10T02:40:55.762Z,39.87
2018-04-10T02:41:55.737Z,36.83
2018-04-10T02:42:55.714Z,36.83
2018-04-10T02:43:55.693Z,37.12
2018-04-10T02:44:55.669Z,37.59
2018-04-10T02:45:55.648Z,40.45
2018-04-10T02:46:55.624Z,41.11
2018-04-10T02:47:57.103Z,36.74
2018-04-10T02:48:55.579Z,34.07
2018-04-10T02:49:55.555Z,33.78
2018-04-10T02:50:55.533Z,33.14
2018-04-10T02:51:55.512Z,32.75
2018-04-10T02:52:55.488Z,31.90
2018-04-10T02:53:55.465Z,31.42
2018-04-10T02:54:55.441Z,32.37
2018-04-10T02:55:55.419Z,30.94
2018-04-10T02:56:55.397Z,30.28
2018-04-10T02:57:55.372Z,30.76
2018-04-10T02:58:55.350Z,30.57
2018-04-10T02:59:55.328Z,30.18
2018-04-10T03:00:55.307Z,32.75
2018-04-10T03:01:55.294Z,33.90
2018-04-10T03:02:55.260Z,34.38
2018-04-10T03:03:55.238Z,35.42
2018-04-10T03:04:55.216Z,32.85
2018-04-10T03:05:55.192Z,33.42
2018-04-10T03:06:55.170Z,32.37
2018-04-10T03:07:55.147Z,32.09
2018-04-10T03:08:55.125Z,32.75
2018-04-10T03:09:55.101Z,32.66
2018-04-10T03:10:55.079Z,32.95
2018-04-10T03:11:55.056Z,32.95
2018-04-10T03:12:55.032Z,32.95
2018-04-10T03:13:55.010Z,33.33
2018-04-10T03:14:54.987Z,32.28
2018-04-10T03:15:54.965Z,33.14
2018-04-10T03:16:54.941Z,32.95
2018-04-10T03:17:54.919Z,32.47
2018-04-10T03:18:54.895Z,32.37
2018-04-10T03:19:58.627Z,32.28
2018-04-10T03:20:54.851Z,34.66
2018-04-10T03:21:54.827Z,35.52
2018-04-10T03:22:54.806Z,36.66
2018-04-10T03:23:54.782Z,36.18
2018-04-10T03:24:54.761Z,36.08
2018-04-10T03:25:54.739Z,36.47
2018-04-10T03:26:54.715Z,36.08
2018-04-10T03:27:54.692Z,35.80
2018-04-10T03:28:54.672Z,35.99
2018-04-10T03:29:54.646Z,35.72
2018-04-10T03:30:54.623Z,35.91
2018-04-10T03:31:54.602Z,35.44
2018-04-10T03:32:54.579Z,36.68
2018-04-10T03:33:54.556Z,36.10
2018-04-10T03:34:54.535Z,36.96
2018-04-10T03:35:54.510Z,37.73
2018-04-10T03:36:54.489Z,37.73
2018-04-10T03:37:54.464Z,38.49
2018-04-10T03:38:54.443Z,39.34
2018-04-10T03:39:54.421Z,36.68
2018-04-10T03:40:54.397Z,37.92
2018-04-10T03:41:54.375Z,39.82
2018-04-10T03:42:54.351Z,41.06
2018-04-10T03:43:54.329Z,40.68
2018-04-10T03:44:54.314Z,41.53
2018-04-10T03:45:54.284Z,43.35
2018-04-10T03:46:54.262Z,43.25
2018-04-10T03:47:54.245Z,43.63
2018-04-10T03:48:54.216Z,44.96
2018-04-10T03:49:54.194Z,43.63
2018-04-10T03:50:54.171Z,43.25
2018-04-10T03:51:54.149Z,43.06
2018-04-10T03:52:54.130Z,43.82
2018-04-10T03:53:54.103Z,44.68
2018-04-10T03:54:54.083Z,44.87
2018-04-10T03:55:54.061Z,45.63
2018-04-10T03:56:54.037Z,45.83
2018-04-10T03:57:54.016Z,44.68
2018-04-10T03:58:53.993Z,44.01
2018-04-10T03:59:53.970Z,43.54
2018-04-10T04:00:53.948Z,42.96
2018-04-10T04:01:53.928Z,42.01
2018-04-10T04:02:53.903Z,41.35
2018-04-10T04:03:53.881Z,41.44
2018-04-10T04:04:53.857Z,41.06
2018-04-10T04:05:53.835Z,41.25
2018-04-10T04:06:53.815Z,41.44
2018-04-10T04:07:53.789Z,41.16
2018-04-10T04:08:53.798Z,40.87
2018-04-10T04:09:53.745Z,41.44
2018-04-10T04:10:53.722Z,41.53
2018-04-10T04:11:53.699Z,42.01
2018-04-10T04:12:53.677Z,41.63
2018-04-10T04:13:53.654Z,41.82
2018-04-10T04:14:53.632Z,41.82
2018-04-10T04:15:53.611Z,41.35
2018-04-10T04:16:53.588Z,41.16
2018-04-10T04:17:53.564Z,40.87
2018-04-10T04:18:53.543Z,40.68
2018-04-10T04:19:53.519Z,41.16
2018-04-10T04:20:53.497Z,40.68
2018-04-10T04:21:53.474Z,40.30
2018-04-10T04:22:53.452Z,39.70
2018-04-10T04:23:53.429Z,38.95
2018-04-10T04:24:53.406Z,38.85
2018-04-10T04:25:53.382Z,37.80
2018-04-10T04:26:53.361Z,36.94
2018-04-10T04:27:53.339Z,37.23
2018-04-10T04:28:54.816Z,36.85
2018-04-10T04:29:53.292Z,36.76
2018-04-10T04:30:53.271Z,36.76
2018-04-10T04:31:53.247Z,35.13
2018-04-10T04:32:53.225Z,34.94
2018-04-10T04:33:53.202Z,35.13
2018-04-10T04:34:53.179Z,35.23
2018-04-10T04:35:53.158Z,39.42
2018-04-10T04:36:53.134Z,43.21
2018-04-10T04:37:53.114Z,40.92
2018-04-10T04:38:53.089Z,37.97
2018-04-10T04:39:53.070Z,34.64
2018-04-10T04:40:53.044Z,33.69
2018-04-10T04:41:53.025Z,32.74
2018-04-10T04:42:52.998Z,33.97
2018-04-10T04:43:52.975Z,31.50
2018-04-10T04:44:52.954Z,32.64
2018-04-10T04:45:52.930Z,32.55
2018-04-10T04:46:52.907Z,32.55
2018-04-10T04:47:52.884Z,34.09
2018-04-10T04:48:52.863Z,34.56
2018-04-10T04:49:52.839Z,35.61
2018-04-10T04:50:52.817Z,35.69
2018-04-10T04:51:52.793Z,35.50
2018-04-10T04:52:52.772Z,34.92
2018-04-10T04:53:52.746Z,33.31
2018-04-10T04:54:52.724Z,32.55
2018-04-10T04:55:53.452Z,34.07
2018-04-10T04:56:52.679Z,33.22
2018-04-10T04:57:52.655Z,32.64
2018-04-10T04:58:52.633Z,32.74
2018-04-10T04:59:52.610Z,33.12
2018-04-10T05:00:52.588Z,32.07
2018-04-10T05:01:52.564Z,31.31
2018-04-10T05:02:52.541Z,31.02
2018-04-10T05:03:52.517Z,31.02
2018-04-10T05:04:52.496Z,31.21
2018-04-10T05:05:52.471Z,31.50
2018-04-10T05:06:52.448Z,30.93
2018-04-10T05:07:52.425Z,29.69
2018-04-10T05:08:52.403Z,28.64
2018-04-10T05:09:52.380Z,29.12
2018-04-10T05:10:52.356Z,29.60
2018-04-10T05:11:52.337Z,30.17
2018-04-10T05:12:52.311Z,29.98
2018-04-10T05:13:52.287Z,29.69
2018-04-10T05:14:52.265Z,28.55
2018-04-10T05:15:52.241Z,25.70
2018-04-10T05:16:52.220Z,25.22
2018-04-10T05:17:52.196Z,24.93
2018-04-10T05:18:52.172Z,27.79
2018-04-10T05:19:52.149Z,31.98
2018-04-10T05:20:52.127Z,32.55
2018-04-10T05:21:52.104Z,33.22
2018-04-10T05:22:52.082Z,32.93
2018-04-10T05:23:52.058Z,30.46
2018-04-10T05:24:52.035Z,30.26
2018-04-10T05:25:52.013Z,30.17
2018-04-10T05:26:51.992Z,28.93
2018-04-10T05:27:51.967Z,29.31
2018-04-10T05:28:51.944Z,27.69
2018-04-10T05:29:51.952Z,27.50
2018-04-10T05:30:51.898Z,26.93
2018-04-10T05:31:51.909Z,25.22
2018-04-10T05:32:51.852Z,24.08
2018-04-10T05:33:51.829Z,24.08
2018-04-10T05:34:51.806Z,23.22
2018-04-10T05:35:51.783Z,23.32
2018-04-10T05:36:51.761Z,22.55
2018-04-10T05:37:51.738Z,23.22
2018-04-10T05:38:51.715Z,24.08
2018-04-10T05:39:51.693Z,23.98
2018-04-10T05:40:51.669Z,24.55
2018-04-10T05:41:51.646Z,24.84
2018-04-10T05:42:51.625Z,25.22
2018-04-10T05:43:51.600Z,25.12
2018-04-10T05:44:51.579Z,25.98
2018-04-10T05:45:51.554Z,25.41
2018-04-10T05:46:51.532Z,25.79
2018-04-10T05:47:51.509Z,26.17
2018-04-10T05:48:51.488Z,26.26
2018-04-10T05:49:51.463Z,27.31
2018-04-10T05:50:51.442Z,27.50
2018-04-10T05:51:51.418Z,27.79
2018-04-10T05:52:51.396Z,26.28
2018-04-10T05:53:51.373Z,26.26
2018-04-10T05:54:51.350Z,26.93
2018-04-10T05:55:51.327Z,27.33
2018-04-10T05:56:51.304Z,26.85
2018-04-10T05:57:51.281Z,26.18
2018-04-10T05:58:51.259Z,26.47
2018-04-10T05:59:51.240Z,26.84
2018-04-10T06:00:51.222Z,26.93
2018-04-10T06:01:51.190Z,26.28
2018-04-10T06:02:51.168Z,26.18
2018-04-10T06:03:51.151Z,27.04
2018-04-10T06:04:51.124Z,26.47
2018-04-10T06:05:51.101Z,26.09
2018-04-10T06:06:51.078Z,26.28
2018-04-10T06:07:51.057Z,27.51
2018-04-10T06:08:51.035Z,27.99
2018-04-10T06:09:51.015Z,28.47
2018-04-10T06:10:50.988Z,29.04
2018-04-10T06:11:53.970Z,28.85
2018-04-10T06:12:50.945Z,29.05
2018-04-10T06:13:50.921Z,29.61
2018-04-10T06:14:50.899Z,29.72
2018-04-10T06:15:50.893Z,30.00
2018-04-10T06:16:50.853Z,30.68
2018-04-10T06:17:50.832Z,32.01
2018-04-10T06:18:50.809Z,34.11
2018-04-10T06:19:50.787Z,35.35
2018-04-10T06:20:50.767Z,36.01
2018-04-10T06:21:50.743Z,37.44
2018-04-10T06:22:50.719Z,38.29
2018-04-10T06:23:50.698Z,39.15
2018-04-10T06:24:50.676Z,40.39
2018-04-10T06:25:50.653Z,40.01
2018-04-10T06:26:50.632Z,40.20
2018-04-10T06:27:50.610Z,40.99
2018-04-10T06:28:51.339Z,41.17
2018-04-10T06:29:50.565Z,42.99
2018-04-10T06:30:50.542Z,42.13
2018-04-10T06:31:50.521Z,43.56
2018-04-10T06:32:50.499Z,43.84
2018-04-10T06:33:50.475Z,43.37
2018-04-10T06:34:50.455Z,42.99
2018-04-10T06:35:50.432Z,44.23
2018-04-10T06:36:50.409Z,44.42
2018-04-10T06:37:50.387Z,45.56
2018-04-10T06:38:50.366Z,45.65
2018-04-10T06:39:50.343Z,45.56
2018-04-10T06:40:50.321Z,46.42
2018-04-10T06:41:50.298Z,48.04
2018-04-10T06:42:50.277Z,50.13
2018-04-10T06:43:50.255Z,48.42
2018-04-10T06:44:50.233Z,49.08
2018-04-10T06:45:50.210Z,50.35
2018-04-10T06:46:50.189Z,52.45
2018-04-10T06:47:50.170Z,52.36
2018-04-10T06:48:50.144Z,51.97
2018-04-10T06:49:50.122Z,51.78
2018-04-10T06:50:50.101Z,53.12
2018-04-10T06:51:50.078Z,53.41
2018-04-10T06:52:50.056Z,52.07
2018-04-10T06:53:50.033Z,52.73
2018-04-10T06:54:50.012Z,51.78
2018-04-10T06:55:49.989Z,53.50
2018-04-10T06:56:49.968Z,54.55
2018-04-10T06:57:49.945Z,54.45
2018-04-10T06:58:49.924Z,54.26
2018-04-10T06:59:49.901Z,54.36
2018-04-10T07:00:52.133Z,56.55
2018-04-10T07:01:49.857Z,55.21
2018-04-10T07:02:49.835Z,56.36
2018-04-10T07:03:49.814Z,56.74
2018-04-10T07:04:49.794Z,58.29
2018-04-10T07:05:49.774Z,59.92
2018-04-10T07:06:49.749Z,60.58
2018-04-10T07:07:49.726Z,60.58
2018-04-10T07:08:49.705Z,60.78
2018-04-10T07:09:49.684Z,63.45
2018-04-10T07:10:49.662Z,63.16
2018-04-10T07:11:49.641Z,64.31
2018-04-10T07:12:49.618Z,62.62
2018-04-10T07:13:49.595Z,64.97
2018-04-10T07:14:49.574Z,63.86
2018-04-10T07:15:49.553Z,64.97
2018-04-10T07:16:49.537Z,65.93
2018-04-10T07:17:49.513Z,64.31
2018-04-10T07:18:49.487Z,67.68
2018-04-10T07:19:49.466Z,66.92
2018-04-10T07:20:49.445Z,65.67
2018-04-10T07:21:49.422Z,66.35
2018-04-10T07:22:49.400Z,66.63
2018-04-10T07:23:49.380Z,70.45
2018-04-10T07:24:49.357Z,67.49
2018-04-10T07:25:49.336Z,69.78
2018-04-10T07:26:49.315Z,70.36
2018-04-10T07:27:49.325Z,70.73
2018-04-10T07:28:49.277Z,69.87
2018-04-10T07:29:49.251Z,68.63
2018-04-10T07:30:49.229Z,67.77
2018-04-10T07:31:49.209Z,68.54
2018-04-10T07:32:49.187Z,68.44
2018-04-10T07:33:49.165Z,70.07
2018-04-10T07:34:49.145Z,69.97
2018-04-10T07:35:49.123Z,69.78
2018-04-10T07:36:49.102Z,70.07
2018-04-10T07:37:49.079Z,69.31
2018-04-10T07:38:49.060Z,68.26
2018-04-10T07:39:49.045Z,69.31
2018-04-10T07:40:49.032Z,69.34
2018-04-10T07:41:48.997Z,68.67
2018-04-10T07:42:48.974Z,71.63
2018-04-10T07:43:48.954Z,70.48
2018-04-10T07:44:48.931Z,70.01
2018-04-10T07:45:48.910Z,71.25
2018-04-10T07:46:48.888Z,73.63
2018-04-10T07:47:48.870Z,75.83
2018-04-10T07:48:48.847Z,75.78
2018-04-10T07:49:48.830Z,75.30
2018-04-10T07:50:48.804Z,76.06
2018-04-10T07:51:48.783Z,79.69
2018-04-10T07:52:48.762Z,80.27
2018-04-10T07:53:48.741Z,80.55
2018-04-10T07:54:48.719Z,81.22
2018-04-10T07:55:48.698Z,80.74
2018-04-10T07:56:48.678Z,79.50
2018-04-10T07:57:48.657Z,81.13
2018-04-10T07:58:48.639Z,81.89
2018-04-10T07:59:48.615Z,81.99
2018-04-10T08:00:48.618Z,81.60
2018-04-10T08:01:48.573Z,82.65
2018-04-10T08:02:48.553Z,84.95
2018-04-10T08:03:48.533Z,84.85
2018-04-10T08:04:48.534Z,82.84
2018-04-10T08:05:48.490Z,84.19
2018-04-10T08:06:48.472Z,81.41
2018-04-10T08:07:48.449Z,83.94
2018-04-10T08:08:48.429Z,85.28
2018-04-10T08:09:48.407Z,86.00
2018-04-10T08:10:48.388Z,86.57
2018-04-10T08:11:48.366Z,84.56
2018-04-10T08:12:48.346Z,82.75
2018-04-10T08:13:48.326Z,82.12
2018-04-10T08:14:48.306Z,83.56
2018-04-10T08:15:48.285Z,82.08
2018-04-10T08:16:48.264Z,81.45
2018-04-10T08:17:48.242Z,80.98
2018-04-10T08:18:48.221Z,84.61
2018-04-10T08:19:48.201Z,84.61
2018-04-10T08:20:48.181Z,84.99
2018-04-10T08:21:48.160Z,84.13
2018-04-10T08:22:48.138Z,84.23
2018-04-10T08:23:48.118Z,88.05
2018-04-10T08:24:48.097Z,87.48
2018-04-10T08:25:48.078Z,86.43
2018-04-10T08:26:48.055Z,86.61
2018-04-10T08:27:48.037Z,88.34
2018-04-10T08:28:48.014Z,86.52
2018-04-10T08:29:47.993Z,91.63
2018-04-10T08:30:48.723Z,91.53
2018-04-10T08:31:47.953Z,91.92
2018-04-10T08:32:47.932Z,92.78
2018-04-10T08:33:47.911Z,93.93
2018-04-10T08:34:47.891Z,94.02
2018-04-10T08:35:47.871Z,92.11
2018-04-10T08:36:47.851Z,91.83
2018-04-10T08:37:47.837Z,90.67
2018-04-10T08:38:47.809Z,93.16
2018-04-10T08:39:47.789Z,93.93
2018-04-10T08:40:47.769Z,92.35
2018-04-10T08:41:47.748Z,93.59
2018-04-10T08:42:47.727Z,94.07
2018-04-10T08:43:47.711Z,93.12
2018-04-10T08:44:47.687Z,95.98
2018-04-10T08:45:47.667Z,94.65
2018-04-10T08:46:47.647Z,95.98
2018-04-10T08:47:47.626Z,95.22
2018-04-10T08:48:47.607Z,96.99
2018-04-10T08:49:47.587Z,97.90
2018-04-10T08:50:47.567Z,97.33
2018-04-10T08:51:47.547Z,95.41
2018-04-10T08:52:47.531Z,95.41
2018-04-10T08:53:47.511Z,95.65
2018-04-10T08:54:47.487Z,98.62
2018-04-10T08:55:47.466Z,98.81
2018-04-10T08:56:47.445Z,98.05
2018-04-10T08:57:47.425Z,97.56
2018-04-10T08:58:47.405Z,96.51
2018-04-10T08:59:47.387Z,98.14
2018-04-10T09:00:47.366Z,97.75
2018-04-10T09:01:47.347Z,98.14
2018-04-10T09:02:47.326Z,96.13
2018-04-10T09:03:47.306Z,97.95
2018-04-10T09:04:47.287Z,97.09
2018-04-10T09:05:47.266Z,99.10
2018-04-10T09:06:47.248Z,96.51
2018-04-10T09:07:47.227Z,98.71
2018-04-10T09:08:50.211Z,99.10
2018-04-10T09:09:47.205Z,96.75
2018-04-10T09:10:47.167Z,99.15
2018-04-10T09:11:47.148Z,99.53
2018-04-10T09:12:47.129Z,98.19
2018-04-10T09:13:47.109Z,97.80
2018-04-10T09:14:47.839Z,98.57
2018-04-10T09:15:47.070Z,98.96
2018-04-10T09:16:47.050Z,97.23
2018-04-10T09:17:47.030Z,97.52
2018-04-10T09:18:47.011Z,98.67
2018-04-10T09:19:46.992Z,98.38
2018-04-10T09:20:46.972Z,97.71
2018-04-10T09:21:46.957Z,98.10
2018-04-10T09:22:46.932Z,97.42
2018-04-10T09:23:46.914Z,99.15
2018-04-10T09:24:46.894Z,97.80
2018-04-10T09:25:46.873Z,99.05
2018-04-10T09:26:46.858Z,98.67
2018-04-10T09:27:46.835Z,98.14
2018-04-10T09:28:46.818Z,98.14
2018-04-10T09:29:46.797Z,98.33
2018-04-10T09:30:46.777Z,97.85
2018-04-10T09:31:46.760Z,98.72
2018-04-10T09:32:46.741Z,98.24
2018-04-10T09:33:46.720Z,98.10
2018-04-10T09:34:46.702Z,97.23
2018-04-10T09:35:47.434Z,97.71
2018-04-10T09:36:46.663Z,98.14
2018-04-10T09:37:46.643Z,98.05
2018-04-10T09:38:46.627Z,98.14
2018-04-10T09:39:46.604Z,97.95
2018-04-10T09:40:46.585Z,98.05
2018-04-10T09:41:46.571Z,98.52
2018-04-10T09:42:46.547Z,98.91
2018-04-10T09:43:46.603Z,98.24
2018-04-10T09:44:46.510Z,97.28
2018-04-10T09:45:46.490Z,98.14
2018-04-10T09:46:46.473Z,98.72
2018-04-10T09:47:46.455Z,98.33
2018-04-10T09:48:46.434Z,98.33
2018-04-10T09:49:46.418Z,98.38
2018-04-10T09:50:46.395Z,97.80
2018-04-10T09:51:46.376Z,98.47
2018-04-10T09:52:46.359Z,97.90
2018-04-10T09:53:46.338Z,97.66
2018-04-10T09:54:46.320Z,98.81
2018-04-10T09:55:46.301Z,97.85
2018-04-10T09:56:46.283Z,99.10
2018-04-10T09:57:47.012Z,97.66
2018-04-10T09:58:46.242Z,97.71
2018-04-10T09:59:46.223Z,96.84
2018-04-10T10:00:46.204Z,98.10
2018-04-10T10:01:46.186Z,98.05
2018-04-10T10:02:46.166Z,98.19
2018-04-10T10:03:46.147Z,98.47
2018-04-10T10:04:46.128Z,98.14
2018-04-10T10:05:46.146Z,98.52
2018-04-10T10:06:46.091Z,98.33
2018-04-10T10:07:46.072Z,97.95
2018-04-10T10:08:46.052Z,97.38
2018-04-10T10:09:46.033Z,98.10
2018-04-10T10:10:46.015Z,98.77
2018-04-10T10:11:45.995Z,97.56
2018-04-10T10:12:45.979Z,97.56
2018-04-10T10:13:45.957Z,97.18
2018-04-10T10:14:45.961Z,97.95
2018-04-10T10:15:45.920Z,97.76
2018-04-10T10:16:45.900Z,97.14
2018-04-10T10:17:45.885Z,97.14
2018-04-10T10:18:45.862Z,97.18
2018-04-10T10:19:45.843Z,97.52
2018-04-10T10:20:45.825Z,97.61
2018-04-10T10:21:45.805Z,97.23
2018-04-10T10:22:45.787Z,96.37
2018-04-10T10:23:45.769Z,96.47
2018-04-10T10:24:46.500Z,95.51
2018-04-10T10:25:45.731Z,95.36
2018-04-10T10:26:45.710Z,94.69
2018-04-10T10:27:45.693Z,92.29
2018-04-10T10:28:45.673Z,93.11
2018-04-10T10:29:45.655Z,92.34
2018-04-10T10:30:45.635Z,93.44
2018-04-10T10:31:45.621Z,91.48
2018-04-10T10:32:45.599Z,91.57
2018-04-10T10:33:45.582Z,92.24
2018-04-10T10:34:45.560Z,92.91
2018-04-10T10:35:45.543Z,93.01
2018-04-10T10:36:45.523Z,92.82
2018-04-10T10:37:45.509Z,91.48
2018-04-10T10:38:45.487Z,92.34
2018-04-10T10:39:45.472Z,88.22
2018-04-10T10:40:45.449Z,86.49
2018-04-10T10:41:45.429Z,88.60
2018-04-10T10:42:45.412Z,88.07
2018-04-10T10:43:45.392Z,90.75
2018-04-10T10:44:45.374Z,88.26
2018-04-10T10:45:45.355Z,88.07
2018-04-10T10:46:45.337Z,85.00
2018-04-10T10:47:45.319Z,82.79
2018-04-10T10:48:45.301Z,81.84
2018-04-10T10:49:45.285Z,85.10
2018-04-10T10:50:45.265Z,81.54
2018-04-10T10:51:45.246Z,82.03
2018-04-10T10:52:45.267Z,83.18
2018-04-10T10:53:45.209Z,80.97
2018-04-10T10:54:45.191Z,77.71
2018-04-10T10:55:45.177Z,77.33
2018-04-10T10:56:45.156Z,80.01
2018-04-10T10:57:45.137Z,78.00
2018-04-10T10:58:45.119Z,79.05
2018-04-10T10:59:45.100Z,79.53
2018-04-10T11:00:45.126Z,78.86
2018-04-10T11:01:45.064Z,79.34
2018-04-10T11:02:45.046Z,81.84
2018-04-10T11:03:45.028Z,78.99
2018-04-10T11:04:45.009Z,76.84
2018-04-10T11:05:45.741Z,76.98
2018-04-10T11:06:44.972Z,79.53
2018-04-10T11:07:44.964Z,77.94
2018-04-10T11:08:44.938Z,74.58
2018-04-10T11:09:44.918Z,74.01
2018-04-10T11:10:44.899Z,71.70
2018-04-10T11:11:44.882Z,71.61
2018-04-10T11:12:44.863Z,71.83
2018-04-10T11:13:44.844Z,70.20
2018-04-10T11:14:44.826Z,71.83
2018-04-10T11:15:44.809Z,77.01
2018-04-10T11:16:45.543Z,82.15
2018-04-10T11:17:44.772Z,76.48
2018-04-10T11:18:44.755Z,74.94
2018-04-10T11:19:44.739Z,72.69
2018-04-10T11:20:44.720Z,73.08
2018-04-10T11:21:44.704Z,72.02
2018-04-10T11:22:44.684Z,74.43
2018-04-10T11:23:44.666Z,73.37
2018-04-10T11:24:44.650Z,72.69
2018-04-10T11:25:44.632Z,74.71
2018-04-10T11:26:44.614Z,78.36
2018-04-10T11:27:44.597Z,79.80
2018-04-10T11:28:44.581Z,76.77
2018-04-10T11:29:44.562Z,75.32
2018-04-10T11:30:44.546Z,78.17
2018-04-10T11:31:44.527Z,83.51
2018-04-10T11:32:46.011Z,88.84
2018-04-10T11:33:44.492Z,90.56
2018-04-10T11:34:44.475Z,91.67
2018-04-10T11:35:44.459Z,92.97
2018-04-10T11:36:44.441Z,94.89
2018-04-10T11:37:44.425Z,95.26
2018-04-10T11:38:44.405Z,95.60
2018-04-10T11:39:44.387Z,95.98
2018-04-10T11:40:44.371Z,95.70
2018-04-10T11:41:44.352Z,96.18
2018-04-10T11:42:44.334Z,96.27
2018-04-10T11:43:44.316Z,95.75
2018-04-10T11:44:44.297Z,95.56
2018-04-10T11:45:44.278Z,95.46
2018-04-10T11:46:44.260Z,95.79
2018-04-10T11:47:44.242Z,95.89
2018-04-10T11:48:44.250Z,96.27
2018-04-10T11:49:44.205Z,96.08
2018-04-10T11:50:44.187Z,95.51
2018-04-10T11:51:44.168Z,96.61
2018-04-10T11:52:44.150Z,97.42
2018-04-10T11:53:44.131Z,96.56
2018-04-10T11:54:44.116Z,96.22
2018-04-10T11:55:44.093Z,96.13
2018-04-10T11:56:44.077Z,96.84
2018-04-10T11:57:44.055Z,97.42
2018-04-10T11:58:44.038Z,96.84
2018-04-10T11:59:44.018Z,96.84
2018-04-10T12:00:44.000Z,97.04
2018-04-10T12:01:43.981Z,96.89
2018-04-10T12:02:43.961Z,97.95
2018-04-10T12:03:43.941Z,97.75
2018-04-10T12:04:45.425Z,97.90
2018-04-10T12:05:43.904Z,98.38
2018-04-10T12:06:43.884Z,98.47
2018-04-10T12:07:43.865Z,97.85
2018-04-10T12:08:43.844Z,97.18
2018-04-10T12:09:43.825Z,98.33
2018-04-10T12:10:43.805Z,97.85
2018-04-10T12:11:43.786Z,98.42
2018-04-10T12:12:43.767Z,98.52
2018-04-10T12:13:43.745Z,98.52
2018-04-10T12:14:43.726Z,97.66
2018-04-10T12:15:43.706Z,98.33
2018-04-10T12:16:43.687Z,98.61
2018-04-10T12:17:43.667Z,97.13
2018-04-10T12:18:43.646Z,98.42
2018-04-10T12:19:43.627Z,97.94
2018-04-10T12:20:43.609Z,98.28
2018-04-10T12:21:44.336Z,97.94
2018-04-10T12:22:43.565Z,98.13
2018-04-10T12:23:43.550Z,98.90
2018-04-10T12:24:43.525Z,98.33
2018-04-10T12:25:43.505Z,98.23
2018-04-10T12:26:43.487Z,97.85
2018-04-10T12:27:43.465Z,97.80
2018-04-10T12:28:43.445Z,98.18
2018-04-10T12:29:43.424Z,98.28
2018-04-10T12:30:43.485Z,96.84
2018-04-10T12:31:43.383Z,96.61
2018-04-10T12:32:43.364Z,96.80
2018-04-10T12:33:43.341Z,95.56
2018-04-10T12:34:43.322Z,98.37
2018-04-10T12:35:43.301Z,98.18
2018-04-10T12:36:43.289Z,97.61
2018-04-10T12:37:43.261Z,98.37
2018-04-10T12:38:43.241Z,96.89
2018-04-10T12:39:43.221Z,96.89
2018-04-10T12:40:43.199Z,98.47
2018-04-10T12:41:43.177Z,96.89
2018-04-10T12:42:43.159Z,98.03
2018-04-10T12:43:43.137Z,96.80
2018-04-10T12:44:43.117Z,96.42
2018-04-10T12:45:43.096Z,96.98
2018-04-10T12:46:43.076Z,98.52
2018-04-10T12:47:43.056Z,97.94
2018-04-10T12:48:43.037Z,96.89
2018-04-10T12:49:43.015Z,97.56
2018-04-10T12:50:42.994Z,96.89
2018-04-10T12:51:42.975Z,96.89
2018-04-10T12:52:44.508Z,97.56